Time;durP1;ratioP1;P1;durP2;ratioP2;P2;SDS_P1;SDS_P2;PMS_P1;PMS_P2;Temp;Humidity;BMP_temperature;BMP_pressure;BME280_temperature;BME280_humidity;BME280_pressure;Samples;Min_cycle;Max_cycle;Signal;HPM_P1;HPM_P2
2023/01/06 00:02:05;;;;;;;0.10;0.10;;;;;;;9.41;100.00;101769.66;4987869;28;20085;-77
2023/01/06 00:04:30;;;;;;;0.10;0.10;;;;;;;9.51;100.00;101755.75;4989904;28;20101;-77
2023/01/06 00:06:56;;;;;;;0.10;0.10;;;;;;;9.33;100.00;101744.25;4999542;28;20046;-76
2023/01/06 00:09:21;;;;;;;0.10;0.10;;;;;;;9.39;100.00;101752.81;4989131;28;20068;-76
2023/01/06 00:11:46;;;;;;;0.05;0.05;;;;;;;9.21;100.00;101743.16;4984456;28;20447;-77
2023/01/06 00:14:12;;;;;;;0.10;0.10;;;;;;;9.18;100.00;101732.63;4987950;28;20498;-76
2023/01/06 00:16:37;;;;;;;0.10;0.10;;;;;;;9.34;100.00;101732.59;4988021;28;20026;-76
2023/01/06 00:19:02;;;;;;;0.10;0.10;;;;;;;9.28;100.00;101733.78;4984465;28;20568;-76
2023/01/06 00:21:28;;;;;;;0.03;0.03;;;;;;;9.38;100.00;101756.44;4987904;28;20032;-77
2023/01/06 00:23:53;;;;;;;0.10;0.10;;;;;;;9.55;100.00;101743.84;4985598;28;20052;-78
2023/01/06 00:26:19;;;;;;;0.10;0.10;;;;;;;9.28;100.00;101702.50;4987098;28;20053;-78
2023/01/06 00:28:44;;;;;;;0.10;0.10;;;;;;;9.52;100.00;101720.78;4987115;28;20037;-77
2023/01/06 00:31:15;;;;;;;0.10;0.10;;;;;;;9.70;100.00;101742.97;4987516;28;20066;-77
2023/01/06 00:33:41;;;;;;;0.10;0.10;;;;;;;9.62;100.00;101747.91;4978643;28;20058;-76
2023/01/06 00:36:08;;;;;;;0.10;0.10;;;;;;;9.55;100.00;101743.84;4985112;28;20073;-75
2023/01/06 00:38:35;;;;;;;0.10;0.10;;;;;;;9.71;100.00;101746.50;4990369;28;20098;-76
2023/01/06 00:43:56;;;;;;;0.10;0.10;;;;;;;9.39;100.00;101719.78;4983976;28;20084;-76
2023/01/06 00:46:22;;;;;;;0.10;0.10;;;;;;;9.43;100.00;101738.28;4988899;28;20040;-78
2023/01/06 00:48:47;;;;;;;0.10;0.10;;;;;;;9.64;100.00;101724.56;4982796;28;20114;-78
2023/01/06 00:51:13;;;;;;;0.10;0.10;;;;;;;9.31;100.00;101701.47;4985023;28;20030;-76
2023/01/06 00:53:38;;;;;;;0.00;0.00;;;;;;;9.46;100.00;101721.13;4984466;28;20042;-77
2023/01/06 00:56:03;;;;;;;0.10;0.10;;;;;;;9.49;100.00;101726.31;4967876;28;20058;-77
2023/01/06 00:58:32;;;;;;;0.10;0.10;;;;;;;9.37;100.00;101708.28;4984671;28;20030;-76
2023/01/06 01:00:58;;;;;;;0.10;0.10;;;;;;;9.60;100.00;101713.16;4979085;28;20455;-77
2023/01/06 01:03:23;;;;;;;0.10;0.10;;;;;;;9.64;100.00;101727.22;4982244;28;20030;-76
2023/01/06 01:05:49;;;;;;;0.10;0.10;;;;;;;9.62;100.00;101707.69;4986779;28;20540;-76
2023/01/06 01:08:14;;;;;;;0.10;0.10;;;;;;;9.87;100.00;101722.28;4985397;28;20030;-76
2023/01/06 01:10:39;;;;;;;0.10;0.10;;;;;;;9.59;100.00;101710.53;4986184;28;20740;-77
2023/01/06 01:13:05;;;;;;;0.10;0.10;;;;;;;9.59;100.00;101705.19;4980084;28;20417;-76
2023/01/06 01:15:30;;;;;;;0.10;0.10;;;;;;;9.73;100.00;101731.16;4983088;28;20030;-76
2023/01/06 01:17:55;;;;;;;0.10;0.10;;;;;;;9.73;100.00;101726.69;4991375;28;20079;-77
2023/01/06 01:20:21;;;;;;;0.00;0.00;;;;;;;9.70;100.00;101732.22;4987630;28;20034;-77
2023/01/06 01:22:46;;;;;;;0.00;0.00;;;;;;;9.51;100.00;101700.28;4982008;28;20069;-77
2023/01/06 01:25:12;;;;;;;0.10;0.10;;;;;;;9.82;100.00;101727.06;4980440;28;20475;-76
2023/01/06 01:27:37;;;;;;;0.10;0.10;;;;;;;9.65;100.00;101738.84;4983197;28;20042;-77
2023/01/06 01:30:03;;;;;;;0.10;0.10;;;;;;;9.50;100.00;101703.94;4984033;28;20153;-75
2023/01/06 01:32:28;;;;;;;0.10;0.10;;;;;;;9.78;100.00;101729.09;4969144;28;20030;-76
2023/01/06 01:34:54;;;;;;;0.05;0.05;;;;;;;9.62;100.00;101712.19;4989941;28;20024;-76
2023/01/06 01:37:19;;;;;;;0.00;0.00;;;;;;;9.64;100.00;101723.69;4990462;28;20097;-76
2023/01/06 01:39:44;;;;;;;0.10;0.10;;;;;;;9.75;100.00;101723.91;4989222;28;20641;-76
2023/01/06 01:42:19;;;;;;;0.10;0.10;;;;;;;9.80;100.00;101710.22;4979969;28;20065;-76
2023/01/06 01:45:22;;;;;;;0.10;0.10;;;;;;;9.68;100.00;101720.72;4984682;28;20033;-76
2023/01/06 01:47:52;;;;;;;0.05;0.05;;;;;;;9.66;100.00;101721.78;4978676;28;20095;-76
2023/01/06 01:50:32;;;;;;;0.10;0.10;;;;;;;9.98;100.00;101713.59;4985363;28;20030;-76
2023/01/06 01:53:08;;;;;;;0.10;0.10;;;;;;;9.80;100.00;101708.41;4981663;28;20468;-76
2023/01/06 01:55:35;;;;;;;0.08;0.08;;;;;;;9.80;100.00;101702.19;4985739;28;20109;-77
2023/01/06 01:58:12;;;;;;;0.10;0.10;;;;;;;9.71;100.00;101698.22;5003222;28;20030;-77
2023/01/06 02:00:39;;;;;;;0.10;0.10;;;;;;;9.86;100.00;101659.75;4982458;28;20022;-76
2023/01/06 02:03:04;;;;;;;0.10;0.10;;;;;;;9.64;100.00;101662.88;4978909;28;20041;-76
2023/01/06 02:05:32;;;;;;;0.10;0.10;;;;;;;9.73;100.00;101697.19;4987069;28;20026;-75
2023/01/06 02:07:59;;;;;;;0.10;0.10;;;;;;;9.50;100.00;101666.38;4983253;28;20030;-76
2023/01/06 02:10:25;;;;;;;0.10;0.10;;;;;;;9.40;100.00;101658.03;4984176;28;20468;-75
2023/01/06 02:12:53;;;;;;;0.10;0.10;;;;;;;9.75;100.00;101684.56;4985829;28;20038;-76
2023/01/06 02:15:23;;;;;;;0.10;0.10;;;;;;;9.66;100.00;101668.16;4976258;28;20030;-76
2023/01/06 02:17:56;;;;;;;0.10;0.10;;;;;;;9.76;100.00;101696.13;4992814;28;20415;-76
2023/01/06 02:20:32;;;;;;;0.10;0.10;;;;;;;9.75;100.00;101689.03;4979373;28;20096;-76
2023/01/06 02:23:23;;;;;;;0.10;0.10;;;;;;;9.98;100.00;101686.75;4979804;28;20117;-75
2023/01/06 02:26:26;;;;;;;0.00;0.00;;;;;;;9.85;100.00;101682.16;4987995;28;20030;-75
2023/01/06 02:29:10;;;;;;;0.10;0.10;;;;;;;9.66;100.00;101679.75;4981906;28;20038;-75
2023/01/06 02:31:51;;;;;;;0.10;0.10;;;;;;;9.65;100.00;101671.81;4985380;28;20096;-76
2023/01/06 02:34:43;;;;;;;0.10;0.10;;;;;;;9.66;100.00;101644.03;4978071;28;20112;-76
2023/01/06 02:37:25;;;;;;;0.10;0.10;;;;;;;9.66;100.00;101644.88;4984334;28;20030;-76
2023/01/06 02:39:56;;;;;;;0.10;0.10;;;;;;;9.94;100.00;101647.66;4980845;28;20030;-77
2023/01/06 02:42:37;;;;;;;0.00;0.00;;;;;;;9.79;100.00;101636.94;4982108;28;20037;-76
2023/01/06 02:45:24;;;;;;;0.10;0.10;;;;;;;9.67;100.00;101645.72;4980746;28;20038;-75
2023/01/06 02:48:15;;;;;;;0.05;0.05;;;;;;;9.56;100.00;101646.38;4980895;28;20035;-76
2023/01/06 02:51:09;;;;;;;0.10;0.10;;;;;;;9.83;100.00;101632.25;4985074;28;20121;-76
2023/01/06 02:53:47;;;;;;;0.10;0.10;;;;;;;9.87;100.00;101629.28;4976844;28;20089;-75
2023/01/06 02:56:12;;;;;;;0.10;0.10;;;;;;;9.60;100.00;101603.22;4982683;28;20026;-75
2023/01/06 02:58:54;;;;;;;0.10;0.10;;;;;;;9.84;100.00;101621.44;4981795;28;20040;-75
2023/01/06 03:01:31;;;;;;;0.10;0.10;;;;;;;9.42;100.00;101583.78;4980351;28;20026;-76
2023/01/06 03:03:58;;;;;;;0.10;0.10;;;;;;;9.62;100.00;101613.00;4972876;28;20053;-77
2023/01/06 03:06:26;;;;;;;0.10;0.10;;;;;;;9.47;100.00;101606.75;4998549;28;20164;-76
2023/01/06 03:08:53;;;;;;;0.10;0.10;;;;;;;9.62;100.00;101599.59;4967016;28;20022;-75
2023/01/06 03:11:18;;;;;;;0.10;0.10;;;;;;;9.45;100.00;101574.66;4978782;28;20027;-75
2023/01/06 03:13:48;;;;;;;0.10;0.10;;;;;;;9.57;100.00;101602.53;4978342;28;20515;-75
2023/01/06 03:16:14;;;;;;;0.10;0.10;;;;;;;9.76;100.00;101615.69;4988352;28;20109;-76
2023/01/06 03:18:41;;;;;;;0.10;0.10;;;;;;;9.38;100.00;101567.97;4990999;28;20027;-75
2023/01/06 03:21:10;;;;;;;0.10;0.10;;;;;;;9.64;100.00;101598.53;4979367;28;20117;-76
2023/01/06 03:23:40;;;;;;;0.10;0.10;;;;;;;9.35;100.00;101569.00;4985838;28;20114;-75
2023/01/06 03:26:05;;;;;;;0.10;0.10;;;;;;;9.60;100.00;101587.13;4987356;28;20039;-76
2023/01/06 03:28:31;;;;;;;0.00;0.00;;;;;;;9.47;100.00;101575.44;4983877;28;20455;-77
2023/01/06 03:31:26;;;;;;;0.10;0.10;;;;;;;9.75;100.00;101603.22;4985080;28;20073;-75
2023/01/06 03:34:13;;;;;;;0.10;0.10;;;;;;;9.85;100.00;101603.50;4988216;28;20026;-75
2023/01/06 03:37:03;;;;;;;0.10;0.10;;;;;;;9.66;100.00;101607.34;4987215;28;20045;-75
2023/01/06 03:39:37;;;;;;;0.03;0.03;;;;;;;9.80;100.00;101601.13;4990211;28;20038;-76
2023/01/06 03:45:28;;;;;;;0.10;0.10;;;;;;;9.76;100.00;101591.53;4979503;28;19929;-75
2023/01/06 03:48:21;;;;;;;0.10;0.10;;;;;;;9.82;100.00;101593.84;4987930;28;20065;-76
2023/01/06 03:51:06;;;;;;;0.10;0.10;;;;;;;9.78;100.00;101578.06;4963883;28;20038;-75
2023/01/06 03:53:34;;;;;;;;;;;;;;;9.82;100.00;101596.53;4982756;28;20030;-76
2023/01/06 03:56:11;;;;;;;0.10;0.10;;;;;;;9.68;100.00;101581.28;4997008;28;19914;-77
2023/01/06 03:58:38;;;;;;;0.10;0.10;;;;;;;9.68;100.00;101597.38;4985632;28;20184;-76
2023/01/06 04:01:03;;;;;;;0.00;0.00;;;;;;;9.76;100.00;101594.22;4976376;28;20034;-76
2023/01/06 04:03:29;;;;;;;0.10;0.10;;;;;;;9.84;100.00;101583.00;4983042;28;20022;-75
2023/01/06 04:05:54;;;;;;;0.10;0.10;;;;;;;9.82;100.00;101583.13;4986023;28;20030;-76
2023/01/06 04:08:20;;;;;;;0.10;0.10;;;;;;;9.78;100.00;101597.66;4969210;28;20061;-75
2023/01/06 04:10:45;;;;;;;0.10;0.10;;;;;;;9.74;100.00;101588.97;4982917;28;20157;-76
2023/01/06 04:13:10;;;;;;;0.10;0.10;;;;;;;9.79;100.00;101583.31;4982397;28;20030;-76
2023/01/06 04:15:36;;;;;;;0.08;0.08;;;;;;;9.84;100.00;101574.97;4969219;28;20038;-75
2023/01/06 04:18:01;;;;;;;0.10;0.10;;;;;;;9.66;100.00;101551.03;4990434;28;20089;-76
2023/01/06 04:20:28;;;;;;;0.00;0.00;;;;;;;9.79;100.00;101569.06;4986672;28;20435;-76
2023/01/06 04:22:55;;;;;;;0.10;0.10;;;;;;;9.74;100.00;101540.69;4984641;28;20068;-76
2023/01/06 04:25:21;;;;;;;0.00;0.00;;;;;;;9.80;100.00;101544.81;4988777;28;20069;-76
2023/01/06 04:27:46;;;;;;;0.10;0.10;;;;;;;9.84;100.00;101532.91;4969469;28;20140;-74
2023/01/06 04:30:12;;;;;;;0.10;0.10;;;;;;;9.95;100.00;101542.09;4969765;28;20030;-74
2023/01/06 04:32:37;;;;;;;0.10;0.10;;;;;;;9.89;100.00;101521.88;4978919;28;20108;-77
2023/01/06 04:35:02;;;;;;;0.00;0.00;;;;;;;10.21;100.00;101532.38;4989556;28;20030;-77
2023/01/06 04:37:28;;;;;;;0.10;0.10;;;;;;;9.83;100.00;101546.41;4970239;28;20034;-77
2023/01/06 04:39:53;;;;;;;0.10;0.10;;;;;;;9.67;100.00;101527.75;4987948;28;20030;-77
2023/01/06 04:42:18;;;;;;;0.10;0.10;;;;;;;9.71;100.00;101510.50;4982266;28;20026;-75
2023/01/06 04:44:44;;;;;;;0.00;0.00;;;;;;;9.91;100.00;101469.00;4994848;28;20062;-76
2023/01/06 04:47:10;;;;;;;0.00;0.00;;;;;;;9.90;100.00;101515.56;4987610;28;20038;-76
2023/01/06 04:49:35;;;;;;;0.10;0.10;;;;;;;9.70;100.00;101490.91;4984851;28;20068;-74
2023/01/06 04:52:00;;;;;;;0.10;0.10;;;;;;;9.72;100.00;101478.25;4981245;28;20128;-76
2023/01/06 04:54:26;;;;;;;0.10;0.10;;;;;;;9.56;100.00;101485.53;4989885;28;20025;-76
2023/01/06 04:56:51;;;;;;;0.10;0.10;;;;;;;9.64;100.00;101485.06;4985435;28;20025;-75
2023/01/06 04:59:16;;;;;;;0.10;0.10;;;;;;;9.70;100.00;101509.66;4988969;28;20491;-76
2023/01/06 05:01:42;;;;;;;0.10;0.10;;;;;;;9.77;100.00;101483.31;4967672;28;20363;-77
2023/01/06 05:04:07;;;;;;;0.00;0.00;;;;;;;9.70;100.00;101480.16;4989174;28;20042;-77
2023/01/06 05:06:33;;;;;;;0.10;0.10;;;;;;;9.71;100.00;101471.16;4966101;28;20018;-77
2023/01/06 05:08:58;;;;;;;0.10;0.10;;;;;;;9.67;100.00;101471.44;4969884;28;20066;-77
2023/01/06 05:11:25;;;;;;;0.10;0.10;;;;;;;10.21;100.00;101502.84;4989021;28;20041;-75
2023/01/06 05:13:51;;;;;;;0.10;0.10;;;;;;;9.84;100.00;101479.28;4972175;28;20057;-77
2023/01/06 05:16:19;;;;;;;0.00;0.00;;;;;;;9.82;100.00;101505.34;4985568;28;20030;-75
2023/01/06 05:18:45;;;;;;;0.10;0.10;;;;;;;9.86;100.00;101480.03;4971085;28;20030;-77
2023/01/06 05:21:10;;;;;;;0.10;0.10;;;;;;;9.67;100.00;101455.34;4965174;28;20035;-77
2023/01/06 05:23:36;;;;;;;0.10;0.10;;;;;;;10.36;100.00;101484.88;4982354;28;20037;-76
2023/01/06 05:26:02;;;;;;;0.08;0.08;;;;;;;9.66;100.00;101469.75;4993770;28;20494;-75
2023/01/06 05:28:28;;;;;;;0.10;0.10;;;;;;;9.69;100.00;101480.25;4967163;28;20030;-76
2023/01/06 05:31:04;;;;;;;0.10;0.10;;;;;;;9.39;100.00;101463.34;4964791;28;20099;-76
2023/01/06 05:33:32;;;;;;;0.10;0.10;;;;;;;9.58;100.00;101446.09;5004455;28;20033;-76
2023/01/06 05:36:04;;;;;;;0.10;0.10;;;;;;;9.88;100.00;101478.13;4983787;28;20030;-76
2023/01/06 05:38:29;;;;;;;0.00;0.00;;;;;;;9.97;100.00;101482.03;4994749;28;20034;-75
2023/01/06 05:40:55;;;;;;;0.10;0.10;;;;;;;9.77;100.00;101452.97;4996261;28;20079;-75
2023/01/06 05:43:21;;;;;;;0.10;0.10;;;;;;;9.82;100.00;101489.25;4990070;28;20026;-77
2023/01/06 05:45:46;;;;;;;0.08;0.08;;;;;;;9.74;100.00;101497.78;4982166;28;20070;-75
2023/01/06 05:48:12;;;;;;;0.10;0.10;;;;;;;9.84;100.00;101500.75;4988123;28;20444;-75
2023/01/06 05:50:37;;;;;;;0.08;0.08;;;;;;;10.01;100.00;101490.72;4981940;28;20455;-76
2023/01/06 05:53:02;;;;;;;0.10;0.10;;;;;;;9.86;100.00;101476.50;4988142;28;20124;-77
2023/01/06 05:55:28;;;;;;;0.00;0.00;;;;;;;9.73;100.00;101482.66;4984254;28;20048;-76
2023/01/06 05:57:53;;;;;;;0.10;0.10;;;;;;;9.80;100.00;101434.00;4969001;28;20038;-76
2023/01/06 06:00:18;;;;;;;0.10;0.10;;;;;;;9.82;100.00;101491.94;4977125;28;20066;-77
2023/01/06 06:02:44;;;;;;;0.05;0.05;;;;;;;10.05;100.00;101477.03;4962192;28;20039;-73
2023/01/06 06:05:09;;;;;;;0.10;0.10;;;;;;;9.95;100.00;101491.13;4983581;28;20129;-75
2023/01/06 06:07:34;;;;;;;0.03;0.03;;;;;;;9.77;100.00;101482.47;4990094;28;20027;-76
2023/01/06 06:10:00;;;;;;;0.03;0.03;;;;;;;9.83;100.00;101498.13;4986289;28;20034;-75
2023/01/06 06:12:25;;;;;;;0.10;0.10;;;;;;;9.81;100.00;101484.84;4984347;28;20026;-75
2023/01/06 06:14:50;;;;;;;0.10;0.10;;;;;;;9.81;100.00;101487.53;4993429;28;20034;-75
2023/01/06 06:17:16;;;;;;;0.10;0.10;;;;;;;9.77;100.00;101503.91;4980530;28;20042;-75
2023/01/06 06:19:41;;;;;;;0.00;0.00;;;;;;;9.71;100.00;101494.41;4995636;28;20200;-76
2023/01/06 06:22:06;;;;;;;0.00;0.00;;;;;;;9.70;100.00;101492.69;4987932;28;20490;-77
2023/01/06 06:24:32;;;;;;;0.10;0.10;;;;;;;9.69;100.00;101466.84;4980529;28;20417;-77
2023/01/06 06:26:57;;;;;;;0.10;0.10;;;;;;;9.58;100.00;101487.19;4977766;28;20078;-77
2023/01/06 06:29:22;;;;;;;0.00;0.00;;;;;;;9.53;100.00;101486.59;4983178;28;20062;-77
2023/01/06 06:31:48;;;;;;;0.10;0.10;;;;;;;9.57;100.00;101489.94;4980304;28;20061;-76
2023/01/06 06:34:13;;;;;;;0.10;0.10;;;;;;;9.45;100.00;101443.31;4983345;28;20259;-77
2023/01/06 06:36:38;;;;;;;0.10;0.10;;;;;;;9.70;100.00;101472.13;4982299;28;20034;-76
2023/01/06 06:39:04;;;;;;;0.10;0.10;;;;;;;9.70;100.00;101458.72;4991576;28;20436;-76
2023/01/06 06:41:29;;;;;;;0.05;0.05;;;;;;;9.62;100.00;101466.38;4984131;28;20097;-76
2023/01/06 06:43:55;;;;;;;0.10;0.10;;;;;;;9.53;100.00;101437.50;4964427;28;20045;-77
2023/01/06 06:46:20;;;;;;;0.10;0.10;;;;;;;9.58;100.00;101472.88;4983946;28;20031;-76
2023/01/06 06:48:46;;;;;;;0.03;0.03;;;;;;;9.65;100.00;101470.72;4982039;28;20042;-75
2023/01/06 06:51:13;;;;;;;0.10;0.10;;;;;;;9.70;100.00;101480.16;4976760;28;20380;-75
2023/01/06 06:53:39;;;;;;;0.10;0.10;;;;;;;9.80;100.00;101469.72;4985020;28;20030;-75
2023/01/06 06:56:06;;;;;;;0.10;0.10;;;;;;;9.94;100.00;101471.50;4988769;28;20034;-76
2023/01/06 06:58:31;;;;;;;0.10;0.10;;;;;;;9.77;100.00;101499.41;4991653;28;20390;-75
2023/01/06 07:00:57;;;;;;;0.10;0.10;;;;;;;9.58;100.00;101487.19;4968658;28;20038;-76
2023/01/06 07:03:23;;;;;;;0.10;0.10;;;;;;;9.53;100.00;101497.31;4987923;28;20030;-75
2023/01/06 07:05:49;;;;;;;0.05;0.05;;;;;;;9.64;100.00;101502.00;4991989;28;20072;-76
2023/01/06 07:08:15;;;;;;;0.10;0.10;;;;;;;9.47;100.00;101488.81;4985444;28;20045;-76
2023/01/06 07:10:40;;;;;;;0.00;0.00;;;;;;;9.46;100.00;101490.63;4971900;28;20030;-76
2023/01/06 07:13:06;;;;;;;0.10;0.10;;;;;;;9.39;100.00;101481.25;4979110;28;20061;-75
2023/01/06 07:15:31;;;;;;;0.10;0.10;;;;;;;9.58;100.00;101492.53;4986099;28;20472;-76
2023/01/06 07:18:01;;;;;;;0.10;0.10;;;;;;;9.52;100.00;101498.28;4987516;28;20030;-75
2023/01/06 07:20:28;;;;;;;0.10;0.10;;;;;;;9.39;100.00;101484.78;4989626;28;20099;-76
2023/01/06 07:22:53;;;;;;;0.00;0.00;;;;;;;9.42;100.00;101510.53;4984618;28;20404;-75
2023/01/06 07:25:19;;;;;;;0.10;0.10;;;;;;;9.27;100.00;101515.03;4990317;28;20038;-75
2023/01/06 07:27:45;;;;;;;0.10;0.10;;;;;;;9.15;100.00;101503.22;4992518;28;20045;-76
2023/01/06 07:30:11;;;;;;;0.10;0.10;;;;;;;9.18;100.00;101484.28;4986070;28;20038;-77
2023/01/06 07:32:36;;;;;;;0.10;0.10;;;;;;;9.22;100.00;101520.66;4987232;28;20079;-74
2023/01/06 07:35:02;;;;;;;0.03;0.03;;;;;;;9.17;100.00;101511.19;4983921;28;20434;-75
2023/01/06 07:37:27;;;;;;;0.10;0.10;;;;;;;9.14;100.00;101509.53;4986843;28;20717;-74
2023/01/06 07:39:52;;;;;;;0.10;0.10;;;;;;;8.67;100.00;101444.53;4987793;28;20034;-75
2023/01/06 07:42:18;;;;;;;0.10;0.10;;;;;;;8.93;100.00;101488.47;4980839;28;20065;-75
2023/01/06 07:44:43;;;;;;;0.10;0.10;;;;;;;9.05;100.00;101500.25;4983615;28;20046;-75
2023/01/06 07:47:09;;;;;;;0.00;0.00;;;;;;;9.05;100.00;101505.63;4977062;28;20027;-73
2023/01/06 07:49:35;;;;;;;0.10;0.10;;;;;;;9.25;100.00;101512.44;4984038;28;20061;-75
2023/01/06 07:52:00;;;;;;;0.10;0.10;;;;;;;9.07;100.00;101519.78;4987303;28;20141;-75
2023/01/06 07:54:25;;;;;;;0.00;0.00;;;;;;;8.91;100.00;101498.41;4985219;28;20532;-75
2023/01/06 07:56:50;;;;;;;0.10;0.10;;;;;;;8.95;100.00;101510.66;4977379;28;20088;-77
2023/01/06 07:59:16;;;;;;;0.08;0.08;;;;;;;9.04;100.00;101511.06;4980748;28;20034;-74
2023/01/06 08:01:41;;;;;;;0.10;0.10;;;;;;;8.74;100.00;101493.22;4988155;28;20038;-76
2023/01/06 08:04:06;;;;;;;0.10;0.10;;;;;;;9.04;100.00;101545.91;4966403;28;20035;-77
2023/01/06 08:06:32;;;;;;;0.10;0.10;;;;;;;8.92;100.00;101513.53;4998403;28;20384;-76
2023/01/06 08:08:57;;;;;;;0.10;0.10;;;;;;;8.77;100.00;101517.97;4976877;28;20516;-76
2023/01/06 08:11:23;;;;;;;0.00;0.00;;;;;;;8.85;100.00;101542.50;4979634;28;20129;-76
2023/01/06 08:13:48;;;;;;;0.10;0.10;;;;;;;8.90;100.00;101552.09;4968631;28;20026;-76
2023/01/06 08:16:13;;;;;;;0.10;0.10;;;;;;;8.76;100.00;101520.75;4983577;28;20026;-78
2023/01/06 08:18:39;;;;;;;0.05;0.05;;;;;;;9.04;100.00;101562.81;4982386;28;20034;-76
2023/01/06 08:21:06;;;;;;;0.10;0.10;;;;;;;8.99;100.00;101576.50;4995780;28;20069;-77
2023/01/06 08:23:32;;;;;;;0.10;0.10;;;;;;;8.95;100.00;101582.97;4983256;28;20502;-75
2023/01/06 08:26:06;;;;;;;0.10;0.10;;;;;;;8.92;100.00;101569.78;4987432;28;20129;-78
2023/01/06 08:28:32;;;;;;;0.10;0.10;;;;;;;8.92;100.00;101574.28;4980445;28;20041;-75
2023/01/06 08:30:58;;;;;;;0.10;0.10;;;;;;;8.91;100.00;101570.72;4981554;28;20033;-75
2023/01/06 08:33:24;;;;;;;0.10;0.10;;;;;;;8.96;100.00;101567.78;4982400;28;20041;-76
2023/01/06 08:35:59;;;;;;;0.10;0.10;;;;;;;8.90;100.00;101566.31;4968085;28;20034;-76
2023/01/06 08:38:25;;;;;;;0.10;0.10;;;;;;;8.93;100.00;101563.47;4985649;28;20041;-76
2023/01/06 08:40:54;;;;;;;0.10;0.10;;;;;;;8.97;100.00;101575.72;4974726;28;20034;-76
2023/01/06 08:43:20;;;;;;;0.10;0.10;;;;;;;9.08;100.00;101595.66;4992341;28;20524;-77
2023/01/06 08:45:46;;;;;;;0.03;0.03;;;;;;;9.14;100.00;101603.31;4982344;28;20041;-77
2023/01/06 08:48:11;;;;;;;0.10;0.10;;;;;;;9.01;100.00;101584.44;4989845;28;20087;-78
2023/01/06 08:50:38;;;;;;;0.10;0.10;;;;;;;9.23;100.00;101605.44;4983454;28;20038;-76
2023/01/06 08:53:03;;;;;;;0.10;0.10;;;;;;;9.30;100.00;101614.84;4976954;28;20096;-76
2023/01/06 08:55:28;;;;;;;0.10;0.10;;;;;;;9.12;100.00;101589.19;4984130;28;20038;-77
2023/01/06 08:57:54;;;;;;;0.00;0.00;;;;;;;9.11;100.00;101579.41;4980852;28;20515;-77
2023/01/06 09:00:19;;;;;;;0.10;0.10;;;;;;;9.33;100.00;101605.75;4981530;28;20065;-76
2023/01/06 09:02:44;;;;;;;0.10;0.10;;;;;;;9.42;100.00;101607.88;4975667;28;20156;-76
2023/01/06 09:05:10;;;;;;;0.10;0.10;;;;;;;9.48;100.00;101612.00;4972750;28;20027;-77
2023/01/06 09:07:35;;;;;;;0.10;0.10;;;;;;;9.69;100.00;101631.28;4983561;28;20030;-76
2023/01/06 09:10:00;;;;;;;0.10;0.10;;;;;;;9.74;100.00;101634.56;4979639;28;20026;-76
2023/01/06 09:12:26;;;;;;;0.00;0.00;;;;;;;9.77;100.00;101633.50;4982714;28;20457;-76
2023/01/06 09:14:51;;;;;;;0.08;0.08;;;;;;;9.79;100.00;101639.63;4985149;28;20054;-76
2023/01/06 09:17:16;;;;;;;0.00;0.00;;;;;;;9.77;100.00;101648.72;4985349;28;20058;-77
2023/01/06 09:19:42;;;;;;;0.00;0.00;;;;;;;9.75;100.00;101630.03;4982289;28;20034;-76
2023/01/06 09:22:07;;;;;;;0.10;0.10;;;;;;;9.81;100.00;101652.94;4982635;28;20030;-76
2023/01/06 09:24:32;;;;;;;0.10;0.10;;;;;;;9.87;100.00;101648.06;4983558;28;20057;-76
2023/01/06 09:26:58;;;;;;;0.00;0.00;;;;;;;9.90;100.00;101657.72;4980251;28;20030;-76
2023/01/06 09:29:23;;;;;;;0.10;0.10;;;;;;;9.71;100.00;101644.59;4979544;28;20030;-76
2023/01/06 09:31:48;;;;;;;0.10;0.10;;;;;;;9.75;100.00;101652.38;4978901;28;20492;-76
2023/01/06 09:34:14;;;;;;;0.10;0.10;;;;;;;9.87;100.00;101684.75;4982236;28;20029;-76
2023/01/06 09:36:39;;;;;;;0.10;0.10;;;;;;;9.87;100.00;101693.66;4975332;28;20437;-76
2023/01/06 09:39:04;;;;;;;0.10;0.10;;;;;;;9.61;100.00;101657.69;4997752;28;20030;-76
2023/01/06 09:41:56;;;;;;;0.05;0.05;;;;;;;9.89;100.00;101693.56;4974648;28;20104;-75
2023/01/06 09:44:27;;;;;;;0.00;0.00;;;;;;;9.65;100.00;101694.09;4992312;28;20153;-75
2023/01/06 09:46:52;;;;;;;0.10;0.10;;;;;;;9.78;100.00;101694.22;4982713;28;20124;-75
2023/01/06 09:49:28;;;;;;;0.10;0.10;;;;;;;9.75;100.00;101679.19;4982199;28;20426;-75
2023/01/06 09:51:56;;;;;;;0.10;0.10;;;;;;;9.80;100.00;101691.47;4978656;28;20768;-76
2023/01/06 09:54:26;;;;;;;0.10;0.10;;;;;;;9.75;100.00;101662.22;4979834;28;20026;-76
2023/01/06 09:57:06;;;;;;;0.10;0.10;;;;;;;9.89;100.00;101704.28;4982959;28;20022;-77
2023/01/06 09:59:38;;;;;;;0.10;0.10;;;;;;;9.56;100.00;101646.38;4974537;28;21825;-75
2023/01/06 10:02:10;;;;;;;0.10;0.10;;;;;;;9.73;100.00;101694.50;4980135;28;20070;-76
2023/01/06 10:04:35;;;;;;;0.00;0.00;;;;;;;9.78;100.00;101710.31;4984158;28;20574;-75
2023/01/06 10:07:07;;;;;;;0.10;0.10;;;;;;;9.78;100.00;101702.25;4976711;28;20113;-76
2023/01/06 10:09:42;;;;;;;0.10;0.10;;;;;;;9.82;100.00;101692.19;4962384;28;20388;-76
2023/01/06 10:12:16;;;;;;;0.10;0.10;;;;;;;9.74;100.00;101712.31;4979207;28;20034;-76
2023/01/06 10:14:58;;;;;;;0.10;0.10;;;;;;;9.75;100.00;101715.84;4981857;28;20101;-76
2023/01/06 10:18:00;;;;;;;0.10;0.10;;;;;;;9.67;100.00;101713.66;4979546;28;20030;-76
2023/01/06 10:20:44;;;;;;;0.00;0.00;;;;;;;9.55;100.00;101719.72;4970591;28;20037;-76
2023/01/06 10:23:38;;;;;;;0.10;0.10;;;;;;;9.62;100.00;101715.72;4981818;28;20058;-75
2023/01/06 10:26:25;;;;;;;0.10;0.10;;;;;;;9.49;100.00;101712.06;4981724;28;20037;-76
2023/01/06 10:28:53;;;;;;;0.10;0.10;;;;;;;9.47;100.00;101712.16;4981804;28;20388;-75
2023/01/06 10:31:21;;;;;;;0.10;0.10;;;;;;;9.44;100.00;101718.56;4985104;28;20026;-75
2023/01/06 10:33:52;;;;;;;0.10;0.10;;;;;;;9.30;100.00;101700.63;4968474;28;20128;-76
2023/01/06 10:36:26;;;;;;;0.10;0.10;;;;;;;9.44;100.00;101709.63;4985582;28;20030;-76
2023/01/06 10:38:52;;;;;;;0.10;0.10;;;;;;;9.41;100.00;101709.81;4983782;28;20030;-76
2023/01/06 10:41:35;;;;;;;0.10;0.10;;;;;;;9.30;100.00;101689.91;4983082;28;20049;-75
2023/01/06 10:44:00;;;;;;;0.10;0.10;;;;;;;9.34;100.00;101698.59;4986275;28;20506;-77
2023/01/06 10:46:31;;;;;;;0.10;0.10;;;;;;;9.48;100.00;101710.34;4985036;28;20062;-76
2023/01/06 10:48:57;;;;;;;0.10;0.10;;;;;;;9.51;100.00;101707.47;4987210;28;20022;-76
2023/01/06 10:51:35;;;;;;;0.00;0.00;;;;;;;9.58;100.00;101707.03;4985662;28;20112;-76
2023/01/06 10:54:06;;;;;;;0.20;0.20;;;;;;;9.68;100.00;101712.69;4982817;28;20027;-76
2023/01/06 10:56:31;;;;;;;0.10;0.10;;;;;;;10.60;100.00;101713.31;4983322;28;20053;-76
2023/01/06 10:59:04;;;;;;;0.10;0.10;;;;;;;10.40;100.00;101685.06;4984060;28;20725;-76
2023/01/06 11:01:29;;;;;;;0.10;0.10;;;;;;;11.42;100.00;101701.72;4987350;28;20447;-76
2023/01/06 11:04:10;;;;;;;0.10;0.10;;;;;;;11.33;100.00;101707.75;4980225;28;20130;-77
2023/01/06 11:06:39;;;;;;;0.10;0.10;;;;;;;11.03;100.00;101680.09;4985548;28;20113;-77
2023/01/06 11:09:26;;;;;;;0.10;0.10;;;;;;;10.98;100.00;101710.94;4975846;28;20083;-77
2023/01/06 11:11:52;;;;;;;0.10;0.10;;;;;;;12.12;100.00;101702.34;4981104;28;20030;-77
2023/01/06 11:14:19;;;;;;;0.20;0.20;;;;;;;13.05;100.00;101706.47;4985371;28;20705;-78
2023/01/06 11:16:54;;;;;;;0.20;0.20;;;;;;;13.68;100.00;101668.44;4967276;28;20072;-77
2023/01/06 11:19:29;;;;;;;0.10;0.10;;;;;;;14.39;98.81;101680.88;4984128;28;20380;-79
2023/01/06 11:21:55;;;;;;;0.10;0.10;;;;;;;13.50;97.45;101685.09;4978904;28;20122;-76
2023/01/06 11:24:22;;;;;;;0.10;0.10;;;;;;;14.34;100.00;101705.59;4976944;28;20034;-77
2023/01/06 11:27:13;;;;;;;0.10;0.10;;;;;;;14.20;94.43;101686.91;4995002;28;20029;-78
2023/01/06 11:29:38;;;;;;;0.10;0.10;;;;;;;14.69;94.74;101707.31;4975098;28;20039;-78
2023/01/06 11:32:12;;;;;;;0.10;0.10;;;;;;;15.44;88.82;101717.41;4985162;28;20048;-77
2023/01/06 11:34:37;;;;;;;0.10;0.10;;;;;;;15.49;85.74;101674.56;4983725;28;20105;-77
2023/01/06 11:37:03;;;;;;;0.10;0.10;;;;;;;15.37;85.69;101711.63;4982858;28;20031;-78
2023/01/06 11:39:34;;;;;;;0.00;0.00;;;;;;;15.78;83.42;101711.78;4981562;28;20058;-76